FMST

Toliara Airport

Madagascar
TAF FMST 202300Z 2100/2124 16005KT 9999 FEW020 SCT040 BECMG 2107/2110 34010KT
Issued Valid From Valid To
Apr-20 @ 23:00 UTC
(5 hours ago)
Apr-21 @ 00:00 UTC
(4 hours ago)
Apr-22 @ 00:00 UTC
(in 20 hours)
Apr-21 @ 00:00 to Apr-21 @ 07:00
TAF FMST 202300Z 2100/2124 16005KT 9999 FEW020 SCT040
Wind Visibility Clouds
160° at 5 knots 10,000+ meters
  • Few at 2,000' AGL
  • Scattered at 4,000' AGL
Becoming Apr-21 @ 07:00 to Apr-22 @ 00:00
BECMG 2107/2110 34010KT
Wind Visibility Clouds
340° at 10 knots 10,000+ meters
  • Few at 2,000' AGL
  • Scattered at 4,000' AGL
TAF FMST 202300Z 2100/2124 16005KT 9999 FEW020 SCT040 BECMG 2107/2110 34010KT
Issued Apr-20 @ 23:00 UTC
(5 hours ago)
Valid From Apr-21 @ 00:00 UTC
(4 hours ago)
Valid To Apr-22 @ 00:00 UTC
(in 20 hours)
Apr-21 @ 00:00 - Apr-21 @ 07:00
Wind Visibility
160° at 5 knots 10,000+ meters
Clouds
  • Few at 2,000' AGL
  • Scattered at 4,000' AGL
Becoming Apr-21 @ 07:00 - Apr-22 @ 00:00
Wind Visibility
340° at 10 knots 10,000+ meters
Clouds
  • Few at 2,000' AGL
  • Scattered at 4,000' AGL